This is the latest recevied weather packets stored in our database for station/object DH1NAI-6. If no packets are shown the sender has not sent any weather packets the latest 10 day(s).
| Time | Temp. | Humidity | Pressure | Rain* | Wind** | Luminosity | Snow |
|---|---|---|---|---|---|---|---|
| 1787741062 | 17.78° C | 89% | 1016.2 hPa | 0 mm | - | 25 W/m² | - |
| 1787740437 | 17.22° C | 91% | 1016.3 hPa | 0 mm | - | 53 W/m² | - |
| 1787739814 | 16.67° C | 91% | 1016.3 hPa | 0 mm | - | 46 W/m² | - |
| 1787739205 | 16.67° C | 93% | 1016.2 hPa | 0 mm | - | 38 W/m² | - |
| 1787738598 | 16.67° C | 92% | 1016.4 hPa | 0 mm | - | 40 W/m² | - |
| 1787737990 | 16.67° C | 92% | 1016.3 hPa | 0 mm | - | 32 W/m² | - |
| 1787737382 | 16.67° C | 91% | 1016.2 hPa | 0 mm | - | 13 W/m² | - |
| 1787736773 | 16.67° C | 90% | 1016.4 hPa | 0 mm | - | 17 W/m² | - |
| 1787736166 | 17.22° C | 89% | 1016.5 hPa | 0 mm | - | 26 W/m² | - |
| 1787735552 | 17.78° C | 86% | 1016.1 hPa | 0 mm | - | 138 W/m² | - |
| 1787734950 | 16.67° C | 90% | 1016.1 hPa | 0 mm | - | 80 W/m² | - |
| 1787734341 | 16.11° C | 91% | 1016.1 hPa | 0 mm | - | 35 W/m² | - |
| 1787733718 | 16.11° C | 91% | 1016.2 hPa | 0 mm | - | 28 W/m² | - |
| 1787733094 | 16.67° C | 91% | 1015.8 hPa | 0 mm | - | 53 W/m² | - |
| 1787732486 | 16.67° C | 90% | 1015.8 hPa | 0 mm | - | 65 W/m² | - |
| 1787731878 | 16.11° C | 92% | 1015.9 hPa | 0 mm | - | 71 W/m² | - |
| 1787731270 | 16.67° C | 90% | 1015.6 hPa | 0 mm | - | 69 W/m² | - |
| 1787730662 | 16.11° C | 91% | 1015.6 hPa | 0 mm | - | 70 W/m² | - |
| 1787730053 | 15.56° C | 93% | 1015.6 hPa | 0 mm | - | 49 W/m² | - |
| 1787729430 | 15.56° C | 94% | 1015.6 hPa | 0 mm | - | 55 W/m² | - |
| 1787728822 | 15.56° C | 94% | 1015.5 hPa | 0 mm | - | 52 W/m² | - |
| 1787728214 | 16.11° C | 94% | 1015.4 hPa | 0 mm | - | 52 W/m² | - |
| 1787727606 | 15° C | 97% | 1015.7 hPa | 0 mm | - | 37 W/m² | - |
| 1787726997 | 14.44° C | 99% | 1015.8 hPa | 0 mm | - | 36 W/m² | - |
| 1787726390 | 13.89° C | 99% | 1015.6 hPa | 0 mm | - | 40 W/m² | - |
* Rain latest hour (hover to see other rain measurements)
** Current wind speed in m/s (hover to see current wind gust speed)